Time;durP1;ratioP1;P1;durP2;ratioP2;P2;SDS_P1;SDS_P2;PMS_P1;PMS_P2;Temp;Humidity;BMP_temperature;BMP_pressure;BME280_temperature;BME280_humidity;BME280_pressure;Samples;Min_cycle;Max_cycle;Signal;HPM_P1;HPM_P2
2022/02/16 00:00:17;;;;;;;15.73;8.94;;;;;;;;;;361437;147;863911;-60
2022/02/16 00:01:18;;;;;;;16.72;8.67;;;;;;;;;;362932;145;856157;-59
2022/02/16 00:02:20;;;;;;;19.54;9.01;;;;;;;;;;363499;145;864166;-60
2022/02/16 00:03:21;;;;;;;15.49;9.31;;;;;;;;;;360839;147;856285;-59
2022/02/16 00:04:23;;;;;;;17.58;9.01;;;;;;;;;;360829;147;863820;-60
2022/02/16 00:05:25;;;;;;;20.25;8.64;;;;;;;;;;361685;145;863898;-59
2022/02/16 00:06:26;;;;;;;14.39;8.64;;;;;;;;;;361115;146;856486;-59
2022/02/16 00:07:28;;;;;;;16.08;8.92;;;;;;;;;;360539;147;863781;-60
2022/02/16 00:08:29;;;;;;;14.74;8.27;;;;;;;;;;362605;145;857151;-59
2022/02/16 00:09:31;;;;;;;21.07;9.31;;;;;;;;;;362868;145;858879;-59
2022/02/16 00:10:32;;;;;;;15.31;9.14;;;;;;;;;;364691;145;863415;-59
2022/02/16 00:11:34;;;;;;;16.06;9.96;;;;;;;;;;362943;145;863901;-60
2022/02/16 00:12:36;;;;;;;20.41;10.77;;;;;;;;;;359859;145;856357;-60
2022/02/16 00:13:37;;;;;;;20.17;10.49;;;;;;;;;;362353;145;856207;-59
2022/02/16 00:14:39;;;;;;;25.14;13.00;;;;;;;;;;364278;147;864084;-60
2022/02/16 00:15:40;;;;;;;31.16;16.89;;;;;;;;;;362866;145;856227;-60
2022/02/16 00:16:42;;;;;;;28.00;15.42;;;;;;;;;;362511;145;856228;-60
2022/02/16 00:17:44;;;;;;;28.06;14.28;;;;;;;;;;363162;145;856172;-59
2022/02/16 00:18:46;;;;;;;20.51;10.71;;;;;;;;;;364172;145;856255;-59
2022/02/16 00:19:47;;;;;;;17.34;10.31;;;;;;;;;;361035;146;857049;-59
2022/02/16 00:20:49;;;;;;;20.34;12.42;;;;;;;;;;361547;145;860654;-60
2022/02/16 00:21:50;;;;;;;27.06;14.41;;;;;;;;;;362328;147;857234;-59
2022/02/16 00:22:52;;;;;;;22.69;11.20;;;;;;;;;;362226;145;856194;-59
2022/02/16 00:23:54;;;;;;;22.60;13.24;;;;;;;;;;361118;146;863689;-60
2022/02/16 00:24:55;;;;;;;35.05;18.02;;;;;;;;;;363423;147;856328;-60
2022/02/16 00:25:59;;;;;;;44.09;20.89;;;;;;;;;;362601;144;856347;-59
2022/02/16 00:27:00;;;;;;;28.31;14.76;;;;;;;;;;362542;144;856178;-59
2022/02/16 00:28:02;;;;;;;29.86;15.83;;;;;;;;;;364471;145;858544;-60
2022/02/16 00:29:03;;;;;;;31.26;16.74;;;;;;;;;;366198;145;863924;-59
2022/02/16 00:30:06;;;;;;;29.60;17.49;;;;;;;;;;361267;145;864412;-60
2022/02/16 00:31:07;;;;;;;33.88;17.86;;;;;;;;;;362035;146;856071;-60
2022/02/16 00:32:09;;;;;;;35.79;19.77;;;;;;;;;;363274;147;856611;-60
2022/02/16 00:33:11;;;;;;;37.52;20.78;;;;;;;;;;362551;145;856911;-60
2022/02/16 00:34:12;;;;;;;27.79;15.53;;;;;;;;;;361752;147;863617;-59
2022/02/16 00:35:14;;;;;;;38.49;21.59;;;;;;;;;;361919;145;856262;-59
2022/02/16 00:36:16;;;;;;;37.53;20.62;;;;;;;;;;360430;147;857276;-60
2022/02/16 00:37:18;;;;;;;29.14;16.66;;;;;;;;;;358036;147;856245;-60
2022/02/16 00:38:19;;;;;;;31.87;18.31;;;;;;;;;;356225;147;859041;-59
2022/02/16 00:39:21;;;;;;;30.01;17.18;;;;;;;;;;356767;149;863815;-59
2022/02/16 00:40:23;;;;;;;31.43;18.69;;;;;;;;;;357790;147;856601;-60
2022/02/16 00:41:25;;;;;;;31.28;16.05;;;;;;;;;;357670;147;856515;-59
2022/02/16 00:42:26;;;;;;;22.38;13.62;;;;;;;;;;358135;149;856000;-60
2022/02/16 00:43:28;;;;;;;25.96;14.04;;;;;;;;;;355564;147;856445;-60
2022/02/16 00:44:30;;;;;;;28.59;16.09;;;;;;;;;;356072;148;856259;-59
2022/02/16 00:45:32;;;;;;;30.76;17.66;;;;;;;;;;356932;147;856707;-59
2022/02/16 00:46:34;;;;;;;32.01;16.51;;;;;;;;;;356693;148;863810;-59
2022/02/16 00:47:36;;;;;;;26.16;14.15;;;;;;;;;;356526;147;856156;-60
2022/02/16 00:48:37;;;;;;;24.81;15.36;;;;;;;;;;356858;147;856748;-59
2022/02/16 00:49:39;;;;;;;30.06;16.49;;;;;;;;;;357078;149;856858;-59
2022/02/16 00:50:41;;;;;;;28.85;15.40;;;;;;;;;;357460;148;858325;-59
2022/02/16 00:51:44;;;;;;;29.21;16.47;;;;;;;;;;356282;147;863699;-60
2022/02/16 00:52:45;;;;;;;28.32;16.76;;;;;;;;;;356832;147;856145;-60
2022/02/16 00:53:47;;;;;;;28.72;16.21;;;;;;;;;;356682;147;856471;-60
2022/02/16 00:54:48;;;;;;;27.94;14.36;;;;;;;;;;356779;147;864874;-59
2022/02/16 00:55:50;;;;;;;21.23;11.73;;;;;;;;;;358222;147;856458;-59
2022/02/16 00:56:51;;;;;;;18.89;11.89;;;;;;;;;;347420;154;856236;-59
2022/02/16 00:57:53;;;;;;;21.41;11.13;;;;;;;;;;345831;153;857419;-60
2022/02/16 00:58:54;;;;;;;22.86;11.67;;;;;;;;;;347545;151;856263;-60
2022/02/16 00:59:56;;;;;;;20.34;11.31;;;;;;;;;;346443;151;856340;-60
2022/02/16 01:00:57;;;;;;;19.02;10.21;;;;;;;;;;349278;151;862339;-59
2022/02/16 01:01:59;;;;;;;18.19;10.01;;;;;;;;;;347301;151;856516;-60
2022/02/16 01:03:01;;;;;;;16.58;11.12;;;;;;;;;;348082;152;856926;-59
2022/02/16 01:04:03;;;;;;;18.14;10.79;;;;;;;;;;349316;150;856200;-59
2022/02/16 01:05:05;;;;;;;16.39;10.85;;;;;;;;;;343779;153;863684;-59
2022/02/16 01:06:07;;;;;;;17.62;10.91;;;;;;;;;;347574;150;863879;-62
2022/02/16 01:07:09;;;;;;;22.80;11.34;;;;;;;;;;348965;150;857138;-60
2022/02/16 01:08:10;;;;;;;24.74;11.12;;;;;;;;;;348164;150;863724;-59
2022/02/16 01:09:12;;;;;;;24.54;11.10;;;;;;;;;;348185;152;864181;-60
2022/02/16 01:10:15;;;;;;;19.59;10.65;;;;;;;;;;346501;152;863582;-59
2022/02/16 01:11:17;;;;;;;17.88;10.62;;;;;;;;;;345783;153;856478;-59
2022/02/16 01:12:18;;;;;;;20.96;10.47;;;;;;;;;;346345;152;863761;-59
2022/02/16 01:13:21;;;;;;;19.71;11.60;;;;;;;;;;346467;152;856322;-60
2022/02/16 01:14:22;;;;;;;28.31;12.41;;;;;;;;;;348587;153;857553;-60
2022/02/16 01:15:24;;;;;;;17.40;10.66;;;;;;;;;;345837;151;856147;-59
2022/02/16 01:16:27;;;;;;;21.98;11.41;;;;;;;;;;346664;153;856088;-60
2022/02/16 01:17:28;;;;;;;17.87;11.16;;;;;;;;;;345902;153;856560;-60
2022/02/16 01:18:30;;;;;;;20.86;10.36;;;;;;;;;;345322;150;860803;-60
2022/02/16 01:19:31;;;;;;;18.92;10.86;;;;;;;;;;345943;150;857107;-59
2022/02/16 01:20:33;;;;;;;19.36;10.71;;;;;;;;;;345880;151;856609;-59
2022/02/16 01:21:35;;;;;;;23.18;11.13;;;;;;;;;;345648;151;863364;-59
2022/02/16 01:22:36;;;;;;;21.22;10.49;;;;;;;;;;346086;152;856265;-59
2022/02/16 01:23:38;;;;;;;16.54;10.14;;;;;;;;;;345933;151;856298;-59
2022/02/16 01:24:39;;;;;;;19.39;10.66;;;;;;;;;;346370;154;864070;-60
2022/02/16 01:25:41;;;;;;;16.27;9.19;;;;;;;;;;344916;151;856256;-59
2022/02/16 01:26:43;;;;;;;18.14;9.26;;;;;;;;;;345083;151;856691;-60
2022/02/16 01:27:44;;;;;;;17.21;9.44;;;;;;;;;;346083;151;863914;-59
2022/02/16 01:28:46;;;;;;;19.94;9.69;;;;;;;;;;347414;151;856369;-59
2022/02/16 01:35:48;;;;;;;15.64;7.69;;;;;;;-1.92;71.19;100177.37;370101;142;882515;-59
2022/02/16 01:36:50;;;;;;;13.66;7.39;;;;;;;-2.00;71.22;100177.80;362634;146;857681;-59
2022/02/16 01:37:52;;;;;;;11.06;6.99;;;;;;;-1.97;71.11;100183.02;362621;147;858667;-59
2022/02/16 01:38:54;;;;;;;11.71;5.81;;;;;;;-1.95;71.10;100178.88;362064;147;864571;-59
2022/02/16 01:39:56;;;;;;;11.12;6.27;;;;;;;-1.89;71.18;100180.84;363626;146;864018;-59
2022/02/16 01:40:58;;;;;;;10.04;6.55;;;;;;;-1.82;70.80;100180.33;364747;146;864557;-58
2022/02/16 01:42:00;;;;;;;12.37;6.43;;;;;;;-1.74;70.58;100180.66;361894;147;864067;-59
2022/02/16 01:43:02;;;;;;;10.23;6.52;;;;;;;-1.66;70.58;100174.26;363097;147;863929;-58
2022/02/16 01:44:04;;;;;;;13.60;6.62;;;;;;;-1.58;70.04;100172.97;363896;146;856839;-59
2022/02/16 01:45:09;;;;;;;12.81;6.82;;;;;;;-1.48;69.64;100174.23;363309;146;856104;-59
2022/02/16 01:46:11;;;;;;;12.77;7.19;;;;;;;-1.37;69.31;100173.03;364016;146;856572;-59
2022/02/16 01:47:13;;;;;;;12.27;6.45;;;;;;;-1.27;68.98;100166.69;363246;146;856671;-59
2022/02/16 01:48:14;;;;;;;11.77;6.53;;;;;;;;;;364695;146;856697;-59
2022/02/16 01:49:16;;;;;;;11.36;6.94;;;;;;;;;;363326;146;863954;-59
2022/02/16 01:50:19;;;;;;;14.19;6.84;;;;;;;;;;362383;147;857974;-58
2022/02/16 01:51:20;;;;;;;14.70;8.09;;;;;;;;;;364684;146;863950;-59
2022/02/16 01:52:22;;;;;;;14.99;7.10;;;;;;;;;;364008;147;856148;-59
2022/02/16 01:53:24;;;;;;;14.28;7.96;;;;;;;;;;365016;146;856206;-61
2022/02/16 01:54:26;;;;;;;13.44;7.67;;;;;;;;;;357705;147;864412;-59
2022/02/16 01:55:27;;;;;;;14.71;7.55;;;;;;;;;;358922;148;857162;-59
2022/02/16 01:56:29;;;;;;;13.64;7.21;;;;;;;;;;357253;150;856006;-59
2022/02/16 01:57:30;;;;;;;13.91;8.06;;;;;;;;;;357502;148;856295;-59
2022/02/16 01:58:35;;;;;;;17.47;8.10;;;;;;;;;;357150;150;856232;-59
2022/02/16 01:59:37;;;;;;;17.00;8.19;;;;;;;;;;357718;150;856208;-60
2022/02/16 02:00:40;;;;;;;12.87;7.44;;;;;;;;;;356608;148;856384;-59
2022/02/16 02:01:42;;;;;;;14.31;8.41;;;;;;;;;;356104;149;856071;-59
2022/02/16 02:02:43;;;;;;;16.83;8.39;;;;;;;;;;356991;148;856256;-59
2022/02/16 02:03:45;;;;;;;12.86;7.94;;;;;;;;;;358151;147;856738;-59
2022/02/16 02:04:46;;;;;;;16.77;8.16;;;;;;;;;;357174;147;863764;-59
2022/02/16 02:05:51;;;;;;;15.73;8.19;;;;;;;;;;355866;148;856279;-59
2022/02/16 02:06:51;;;;;;;15.84;8.58;;;;;;;;;;357801;150;856268;-59
2022/02/16 02:07:53;;;;;;;13.74;8.29;;;;;;;;;;356559;147;863947;-59
2022/02/16 02:08:55;;;;;;;14.45;8.26;;;;;;;;;;356101;149;864034;-59
2022/02/16 02:09:56;;;;;;;17.36;9.00;;;;;;;;;;357917;147;861544;-59
2022/02/16 02:10:58;;;;;;;15.19;8.69;;;;;;;;;;356734;147;857671;-59
2022/02/16 02:11:59;;;;;;;16.80;8.51;;;;;;;;;;357002;147;864212;-60
2022/02/16 02:13:01;;;;;;;16.31;9.28;;;;;;;;;;357955;148;857431;-59
2022/02/16 02:14:03;;;;;;;15.95;8.51;;;;;;;;;;357493;146;857014;-59
2022/02/16 02:15:05;;;;;;;14.91;8.71;;;;;;;;;;358553;147;856270;-59
2022/02/16 02:16:07;;;;;;;16.46;9.07;;;;;;;;;;355571;147;856435;-59
2022/02/16 02:17:08;;;;;;;16.42;9.24;;;;;;;;;;361044;147;856253;-59
2022/02/16 02:18:16;;;;;;;15.34;8.88;;;;;;;;;;358691;147;863813;-59
2022/02/16 02:19:18;;;;;;;14.26;8.98;;;;;;;;;;357382;148;856103;-59
2022/02/16 02:20:24;;;;;;;20.36;9.96;;;;;;;;;;354967;148;856690;-59
2022/02/16 02:21:26;;;;;;;16.11;8.77;;;;;;;;;;356376;148;856148;-59
2022/02/16 02:22:28;;;;;;;17.33;9.38;;;;;;;;;;348614;151;856115;-59
2022/02/16 02:23:30;;;;;;;18.40;9.02;;;;;;;;;;358172;147;864373;-59
2022/02/16 02:24:31;;;;;;;16.94;9.30;;;;;;;;;;354708;147;863908;-59
2022/02/16 02:25:42;;;;;;;16.34;9.44;;;;;;;;;;356484;149;856471;-59
2022/02/16 02:26:44;;;;;;;14.64;9.02;;;;;;;;;;356378;148;863795;-59
2022/02/16 02:27:46;;;;;;;16.39;9.12;;;;;;;;;;358413;149;856644;-59
2022/02/16 02:28:47;;;;;;;17.35;9.23;;;;;;;;;;356745;147;864246;-59
2022/02/16 02:29:49;;;;;;;15.18;8.61;;;;;;;;;;355764;148;863904;-59
2022/02/16 02:30:50;;;;;;;16.29;9.23;;;;;;;;;;357553;147;856219;-59
2022/02/16 02:31:52;;;;;;;18.68;9.44;;;;;;;;;;356037;147;864021;-59
2022/02/16 02:32:54;;;;;;;18.32;8.81;;;;;;;;;;357822;147;856719;-59
2022/02/16 02:33:56;;;;;;;17.09;9.24;;;;;;;;;;356009;147;856229;-59
2022/02/16 02:34:57;;;;;;;17.34;8.86;;;;;;;;;;356207;148;864976;-59
2022/02/16 02:35:59;;;;;;;16.64;9.17;;;;;;;;;;356168;147;856463;-59
2022/02/16 02:37:00;;;;;;;16.21;8.63;;;;;;;;;;357744;147;856949;-59
2022/02/16 02:38:02;;;;;;;18.14;9.41;;;;;;;;;;357104;147;864442;-59
2022/02/16 02:39:04;;;;;;;21.36;9.46;;;;;;;;;;356309;147;864041;-59
2022/02/16 02:40:06;;;;;;;17.74;10.17;;;;;;;;;;357311;148;856652;-59
2022/02/16 02:41:07;;;;;;;12.94;8.80;;;;;;;;;;349471;152;856513;-59
2022/02/16 02:42:09;;;;;;;17.85;9.02;;;;;;;;;;357702;148;863792;-59
2022/02/16 02:43:10;;;;;;;16.63;8.74;;;;;;;;;;355763;149;856485;-59
2022/02/16 02:44:12;;;;;;;15.45;9.32;;;;;;;;;;357528;150;856682;-59
2022/02/16 02:45:14;;;;;;;15.14;8.80;;;;;;;;;;357069;147;856308;-59
2022/02/16 02:46:16;;;;;;;17.65;9.53;;;;;;;;;;356694;148;856275;-59
2022/02/16 02:47:18;;;;;;;16.01;10.33;;;;;;;;;;357201;148;864244;-59
2022/02/16 02:48:20;;;;;;;24.34;12.40;;;;;;;;;;357620;148;863820;-59
2022/02/16 02:49:23;;;;;;;28.10;14.40;;;;;;;;;;355687;149;856292;-59
2022/02/16 02:50:26;;;;;;;27.15;13.47;;;;;;;;;;358616;147;856231;-59
2022/02/16 02:51:27;;;;;;;19.30;11.21;;;;;;;;;;357235;148;856289;-60
2022/02/16 02:52:31;;;;;;;19.21;11.04;;;;;;;;;;358964;147;864262;-59
2022/02/16 02:53:32;;;;;;;18.19;10.77;;;;;;;;;;357680;149;856443;-59
2022/02/16 02:54:34;;;;;;;21.90;11.52;;;;;;;;;;356284;149;856337;-58
2022/02/16 02:55:35;;;;;;;22.61;11.74;;;;;;;;;;358075;150;856026;-58
2022/02/16 02:56:37;;;;;;;22.91;11.74;;;;;;;;;;356439;147;863638;-59
2022/02/16 02:57:39;;;;;;;20.44;11.06;;;;;;;;;;356486;148;863892;-59
2022/02/16 02:58:40;;;;;;;17.15;10.14;;;;;;;;;;357124;147;856308;-59
2022/02/16 02:59:42;;;;;;;27.19;10.74;;;;;;;;;;356487;148;856466;-59
2022/02/16 03:00:43;;;;;;;20.91;12.10;;;;;;;;;;358271;147;856034;-59
2022/02/16 03:01:45;;;;;;;20.54;11.34;;;;;;;;;;357064;148;856183;-59
2022/02/16 03:02:46;;;;;;;19.59;11.28;;;;;;;;;;358260;147;856449;-59
2022/02/16 03:03:48;;;;;;;22.00;11.69;;;;;;;;;;357661;147;863602;-59
2022/02/16 03:04:50;;;;;;;24.92;11.88;;;;;;;;;;357529;148;856181;-59
2022/02/16 03:05:51;;;;;;;25.40;13.09;;;;;;;;;;357204;147;856303;-59
2022/02/16 03:06:53;;;;;;;25.72;13.22;;;;;;;;;;356060;148;864597;-60
2022/02/16 03:07:54;;;;;;;21.77;12.74;;;;;;;;;;357648;147;864419;-59
2022/02/16 03:08:56;;;;;;;23.12;12.06;;;;;;;;;;358739;147;856999;-59
2022/02/16 03:09:57;;;;;;;22.46;11.85;;;;;;;;;;358931;148;856873;-60
2022/02/16 03:10:59;;;;;;;20.29;11.32;;;;;;;;;;356993;147;864052;-59
2022/02/16 03:12:00;;;;;;;17.71;10.07;;;;;;;;;;357120;149;856813;-59
2022/02/16 03:13:02;;;;;;;20.76;10.96;;;;;;;;;;356378;148;856569;-59
2022/02/16 03:14:03;;;;;;;22.67;11.20;;;;;;;;;;356697;147;856665;-59
2022/02/16 03:15:05;;;;;;;21.80;11.95;;;;;;;;;;356807;147;856072;-59
2022/02/16 03:16:07;;;;;;;22.04;11.48;;;;;;;;;;357716;148;856605;-59
2022/02/16 03:17:09;;;;;;;23.88;10.84;;;;;;;;;;357813;147;856362;-59
2022/02/16 03:18:10;;;;;;;24.19;11.38;;;;;;;;;;358007;147;857156;-58
2022/02/16 03:19:11;;;;;;;20.13;11.04;;;;;;;;;;357303;149;856490;-58
2022/02/16 03:20:14;;;;;;;19.69;11.51;;;;;;;;;;357868;148;857031;-59
2022/02/16 03:21:16;;;;;;;22.37;11.12;;;;;;;;;;357106;147;856615;-58
2022/02/16 03:22:19;;;;;;;19.23;11.30;;;;;;;;;;357301;147;856455;-59
2022/02/16 03:23:21;;;;;;;18.64;11.02;;;;;;;;;;357174;147;863856;-58
2022/02/16 03:24:22;;;;;;;19.76;11.25;;;;;;;;;;355116;148;863654;-59
2022/02/16 03:25:24;;;;;;;20.99;10.89;;;;;;;;;;357666;149;863507;-59
2022/02/16 03:26:26;;;;;;;19.18;10.38;;;;;;;;;;351448;150;856321;-58
2022/02/16 03:27:28;;;;;;;23.07;10.96;;;;;;;;;;343064;155;856081;-59
2022/02/16 03:28:29;;;;;;;18.56;11.07;;;;;;;;;;355711;147;856201;-57
2022/02/16 03:29:31;;;;;;;17.32;10.04;;;;;;;;;;355929;147;856632;-59
2022/02/16 03:30:32;;;;;;;16.94;10.82;;;;;;;;;;358091;148;856201;-59
2022/02/16 03:31:34;;;;;;;19.61;10.72;;;;;;;;;;356403;148;856205;-59
2022/02/16 03:32:35;;;;;;;18.31;10.36;;;;;;;;;;357232;147;856920;-59
2022/02/16 03:33:37;;;;;;;16.81;9.34;;;;;;;;;;355904;149;857441;-59
2022/02/16 03:34:38;;;;;;;17.54;10.81;;;;;;;;;;358853;147;863916;-58
2022/02/16 03:35:40;;;;;;;18.77;10.26;;;;;;;;;;356437;150;863933;-59
2022/02/16 03:36:42;;;;;;;17.19;10.17;;;;;;;;;;354683;150;863361;-58
2022/02/16 03:37:43;;;;;;;16.05;9.89;;;;;;;;;;352614;151;856272;-59
2022/02/16 03:38:45;;;;;;;19.54;10.36;;;;;;;;;;351310;150;863873;-58
2022/02/16 03:39:47;;;;;;;20.16;10.03;;;;;;;;;;353698;150;856187;-57
2022/02/16 03:40:49;;;;;;;20.19;10.33;;;;;;;;;;352454;150;856133;-59
2022/02/16 03:41:50;;;;;;;19.99;9.81;;;;;;;;;;351477;150;856132;-59
2022/02/16 03:42:52;;;;;;;19.02;9.85;;;;;;;;;;350815;150;856631;-58
2022/02/16 03:43:54;;;;;;;26.72;11.07;;;;;;;;;;353812;150;856271;-59
2022/02/16 03:44:55;;;;;;;26.71;9.78;;;;;;;;;;353084;151;856424;-55
2022/02/16 03:45:56;;;;;;;19.40;10.24;;;;;;;;;;353389;150;856210;-59
2022/02/16 03:46:58;;;;;;;19.96;10.26;;;;;;;;;;352094;150;856304;-59
2022/02/16 03:48:00;;;;;;;20.65;11.16;;;;;;;;;;349847;150;863725;-59
2022/02/16 03:49:01;;;;;;;22.20;11.27;;;;;;;;;;352141;150;863722;-59
2022/02/16 03:50:03;;;;;;;20.09;11.19;;;;;;;;;;351163;150;864321;-59
2022/02/16 03:51:05;;;;;;;19.09;10.73;;;;;;;;;;350491;150;864130;-60
2022/02/16 03:52:07;;;;;;;22.73;10.79;;;;;;;;;;351585;151;856601;-58
2022/02/16 03:53:08;;;;;;;23.96;11.40;;;;;;;;;;352441;151;856157;-61
2022/02/16 03:54:10;;;;;;;18.79;11.20;;;;;;;;;;352976;150;856175;-58
2022/02/16 03:55:12;;;;;;;18.44;10.74;;;;;;;;;;353071;150;863685;-58
2022/02/16 03:56:13;;;;;;;24.00;11.74;;;;;;;;;;351885;150;856810;-58
2022/02/16 03:57:15;;;;;;;23.97;10.78;;;;;;;;;;353946;150;863657;-58
2022/02/16 03:58:17;;;;;;;20.63;11.47;;;;;;;;;;351423;151;863587;-58
2022/02/16 03:59:18;;;;;;;22.56;10.90;;;;;;;;;;353181;150;857015;-58
2022/02/16 04:00:20;;;;;;;17.41;10.91;;;;;;;;;;351918;150;861239;-59
2022/02/16 04:01:22;;;;;;;20.39;11.66;;;;;;;;;;353114;151;864386;-58
2022/02/16 04:02:23;;;;;;;20.66;11.11;;;;;;;;;;351825;150;856687;-59
2022/02/16 04:03:25;;;;;;;22.85;11.24;;;;;;;;;;350198;150;862241;-58
2022/02/16 04:04:27;;;;;;;19.64;11.16;;;;;;;;;;351341;151;863748;-59
2022/02/16 04:05:29;;;;;;;19.53;11.45;;;;;;;;;;349643;150;863678;-59
2022/02/16 04:06:30;;;;;;;20.29;11.62;;;;;;;;;;351162;150;856815;-59
2022/02/16 04:07:32;;;;;;;20.90;11.71;;;;;;;;;;351433;150;856102;-59
2022/02/16 04:08:33;;;;;;;19.48;10.65;;;;;;;;;;349586;150;856427;-58
2022/02/16 04:09:35;;;;;;;24.33;12.11;;;;;;;;;;351289;150;856182;-59
2022/02/16 04:10:36;;;;;;;23.67;11.63;;;;;;;;;;350203;150;856523;-60
2022/02/16 04:11:38;;;;;;;23.15;12.67;;;;;;;;;;348156;150;863679;-59
2022/02/16 04:12:40;;;;;;;25.53;12.56;;;;;;;;;;352920;151;856225;-59
2022/02/16 04:13:41;;;;;;;22.44;11.43;;;;;;;;;;352337;150;856370;-59
2022/02/16 04:14:42;;;;;;;24.81;11.69;;;;;;;;;;350804;151;863666;-58
2022/02/16 04:15:44;;;;;;;22.39;11.57;;;;;;;;;;349689;150;856492;-59
2022/02/16 04:16:46;;;;;;;21.59;12.34;;;;;;;;;;351992;150;856935;-58
2022/02/16 04:17:48;;;;;;;23.06;12.53;;;;;;;;;;350347;150;862066;-62
2022/02/16 04:18:49;;;;;;;23.32;12.09;;;;;;;;;;352592;150;856378;-58
2022/02/16 04:19:51;;;;;;;18.94;11.54;;;;;;;;;;352620;150;859055;-56
2022/02/16 04:20:52;;;;;;;19.24;10.08;;;;;;;;;;350881;150;864315;-56
2022/02/16 04:21:54;;;;;;;18.59;11.79;;;;;;;;;;349273;150;864097;-55
2022/02/16 04:22:56;;;;;;;24.73;12.08;;;;;;;;;;350141;150;856431;-56
2022/02/16 04:23:58;;;;;;;22.94;12.26;;;;;;;;;;352131;150;856573;-56
2022/02/16 04:24:59;;;;;;;20.14;11.77;;;;;;;;;;350486;150;856432;-57
2022/02/16 04:26:01;;;;;;;20.86;11.33;;;;;;;;;;349401;150;856737;-56
2022/02/16 04:27:03;;;;;;;24.81;11.70;;;;;;;;;;351276;151;864501;-56
2022/02/16 04:28:05;;;;;;;19.53;11.90;;;;;;;;;;351940;150;856225;-58
2022/02/16 04:29:06;;;;;;;19.70;11.89;;;;;;;;;;350966;151;863735;-57
2022/02/16 04:30:09;;;;;;;26.26;12.36;;;;;;;;;;352149;150;863619;-57
2022/02/16 04:31:10;;;;;;;23.97;12.43;;;;;;;;;;352048;150;856712;-56
2022/02/16 04:32:12;;;;;;;21.50;12.08;;;;;;;;;;353635;150;856094;-57
2022/02/16 04:33:13;;;;;;;24.27;11.82;;;;;;;;;;350629;151;856100;-56
2022/02/16 04:34:15;;;;;;;22.03;11.73;;;;;;;;;;352182;150;856627;-57
2022/02/16 04:35:16;;;;;;;20.92;12.01;;;;;;;;;;351384;150;856906;-57
2022/02/16 04:36:25;;;;;;;21.92;11.29;;;;;;;;;;351062;150;863647;-57
2022/02/16 04:37:22;;;;;;;19.92;11.84;;;;;;;;;;358918;147;862297;-58
2022/02/16 04:38:24;;;;;;;21.88;12.33;;;;;;;;;;356977;148;857215;-57
2022/02/16 04:39:25;;;;;;;20.13;11.47;;;;;;;;;;356928;147;856376;-58
2022/02/16 04:40:27;;;;;;;22.31;11.77;;;;;;;;;;358053;148;858305;-57
2022/02/16 04:41:29;;;;;;;25.27;12.79;;;;;;;;;;357789;148;856471;-55
2022/02/16 04:42:31;;;;;;;24.36;12.58;;;;;;;;;;359231;147;856026;-58
2022/02/16 04:43:33;;;;;;;23.97;14.10;;;;;;;;;;358665;148;861893;-57
2022/02/16 04:44:34;;;;;;;23.17;11.39;;;;;;;;;;358416;146;863832;-56
2022/02/16 04:45:36;;;;;;;24.36;12.48;;;;;;;;;;358213;147;856645;-57
2022/02/16 04:46:37;;;;;;;25.44;12.40;;;;;;;;;;357901;147;858472;-57
2022/02/16 04:47:39;;;;;;;21.85;12.17;;;;;;;;;;358126;147;856806;-56
2022/02/16 04:48:41;;;;;;;21.80;12.25;;;;;;;;;;357709;147;856618;-57
2022/02/16 04:49:42;;;;;;;25.04;11.82;;;;;;;;;;357145;149;863623;-59
2022/02/16 04:50:44;;;;;;;21.68;11.96;;;;;;;;;;358432;149;863676;-56
2022/02/16 04:51:45;;;;;;;20.14;11.64;;;;;;;;;;358803;147;864290;-57
2022/02/16 04:56:11;;;;;;;20.27;10.51;;;;;;;-0.11;76.02;100089.13;372598;141;881820;-57
2022/02/16 04:57:13;;;;;;;17.95;9.87;;;;;;;-0.20;75.95;100099.81;371875;144;857111;-56
2022/02/16 04:58:15;;;;;;;20.95;8.79;;;;;;;-0.18;75.96;100098.19;365699;144;857182;-57
2022/02/16 04:59:17;;;;;;;13.56;8.23;;;;;;;-0.13;75.93;100100.04;368267;144;858910;-57
2022/02/16 05:00:19;;;;;;;14.19;7.93;;;;;;;-0.10;75.83;100102.70;366618;144;865913;-57
2022/02/16 05:01:21;;;;;;;13.39;7.99;;;;;;;-0.04;75.73;100101.27;366118;144;864448;-56
2022/02/16 05:02:23;;;;;;;17.89;7.89;;;;;;;0.04;75.50;100103.23;366317;144;864443;-57
2022/02/16 05:03:25;;;;;;;14.73;8.06;;;;;;;0.12;75.32;100099.29;367264;144;856157;-58
2022/02/16 05:04:27;;;;;;;12.99;7.80;;;;;;;;;;366122;144;857088;-57
2022/02/16 05:05:28;;;;;;;15.57;7.99;;;;;;;;;;368824;144;863954;-57
2022/02/16 05:06:30;;;;;;;14.80;8.97;;;;;;;;;;366201;144;864222;-58
2022/02/16 05:07:32;;;;;;;15.44;8.13;;;;;;;;;;370156;144;856233;-57
2022/02/16 05:08:33;;;;;;;17.21;9.79;;;;;;;;;;366474;144;858893;-56
2022/02/16 05:09:35;;;;;;;19.08;9.54;;;;;;;;;;366024;144;856367;-57
2022/02/16 05:10:36;;;;;;;16.61;9.85;;;;;;;;;;365822;144;856095;-57
2022/02/16 05:11:38;;;;;;;18.89;10.77;;;;;;;;;;368110;144;861286;-58
2022/02/16 05:12:41;;;;;;;21.30;11.33;;;;;;;;;;367190;144;864120;-55
2022/02/16 05:13:42;;;;;;;20.66;10.36;;;;;;;;;;366063;144;863744;-58
2022/02/16 05:14:44;;;;;;;24.47;12.38;;;;;;;;;;367648;144;863450;-57
2022/02/16 05:15:45;;;;;;;18.41;11.03;;;;;;;;;;370017;144;860757;-58
2022/02/16 05:16:47;;;;;;;18.38;11.03;;;;;;;;;;368817;144;856903;-58
2022/02/16 05:17:48;;;;;;;21.70;10.95;;;;;;;;;;366330;144;863938;-57
2022/02/16 05:18:50;;;;;;;17.84;11.28;;;;;;;;;;367770;144;863771;-56
2022/02/16 05:19:52;;;;;;;20.41;11.03;;;;;;;;;;359998;147;863881;-57
2022/02/16 05:20:53;;;;;;;23.29;11.53;;;;;;;;;;366168;144;856415;-60
2022/02/16 05:21:55;;;;;;;19.20;10.68;;;;;;;;;;366715;144;863798;-56
2022/02/16 05:22:56;;;;;;;23.26;11.89;;;;;;;;;;365890;144;856739;-58
2022/02/16 05:23:58;;;;;;;21.18;10.97;;;;;;;;;;366986;144;860418;-58
2022/02/16 05:24:59;;;;;;;20.43;10.99;;;;;;;;;;366962;144;858762;-59
2022/02/16 05:26:01;;;;;;;22.42;12.04;;;;;;;;;;367086;144;856313;-60
2022/02/16 05:27:03;;;;;;;31.50;12.38;;;;;;;;;;366266;144;864544;-56
2022/02/16 05:28:04;;;;;;;21.37;12.77;;;;;;;;;;366072;144;856963;-56
2022/02/16 05:29:06;;;;;;;22.72;11.06;;;;;;;;;;366893;144;856756;-58
2022/02/16 05:30:09;;;;;;;17.53;10.32;;;;;;;;;;365765;144;856236;-58
2022/02/16 05:31:11;;;;;;;21.32;11.36;;;;;;;;;;367669;144;856285;-55
2022/02/16 05:32:12;;;;;;;22.82;11.81;;;;;;;;;;367411;144;856365;-56
2022/02/16 05:33:14;;;;;;;20.86;11.44;;;;;;;;;;366096;144;863822;-56
2022/02/16 05:34:16;;;;;;;27.27;13.06;;;;;;;;;;366998;144;856164;-57
2022/02/16 05:35:18;;;;;;;25.09;12.37;;;;;;;;;;366639;144;856220;-56
2022/02/16 05:36:21;;;;;;;27.42;12.98;;;;;;;;;;367068;144;863796;-56
2022/02/16 05:37:23;;;;;;;28.64;14.17;;;;;;;;;;366244;144;856814;-57
2022/02/16 05:38:24;;;;;;;23.85;11.77;;;;;;;;;;367181;144;856171;-59
2022/02/16 05:39:26;;;;;;;22.17;12.31;;;;;;;;;;366090;144;856422;-58
2022/02/16 05:40:28;;;;;;;24.48;12.70;;;;;;;;;;366097;144;863753;-61
2022/02/16 05:41:30;;;;;;;25.79;12.56;;;;;;;;;;367979;144;864720;-63
2022/02/16 05:42:31;;;;;;;28.79;13.17;;;;;;;;;;366373;144;856491;-62
2022/02/16 05:43:33;;;;;;;28.58;12.28;;;;;;;;;;366623;144;856598;-58
2022/02/16 05:44:34;;;;;;;24.77;12.83;;;;;;;;;;367419;144;863880;-60
2022/02/16 05:45:36;;;;;;;21.86;11.74;;;;;;;;;;366033;144;856632;-61
2022/02/16 05:46:38;;;;;;;23.89;12.59;;;;;;;;;;368673;144;856266;-62
2022/02/16 05:47:40;;;;;;;23.09;11.29;;;;;;;;;;367926;144;855992;-61
2022/02/16 05:48:41;;;;;;;24.89;11.41;;;;;;;;;;366940;144;863590;-61
2022/02/16 05:49:43;;;;;;;22.94;11.99;;;;;;;;;;369013;144;856363;-61
2022/02/16 05:50:44;;;;;;;16.76;8.99;;;;;;;;;;366777;144;856237;-61
2022/02/16 05:51:46;;;;;;;21.78;11.16;;;;;;;;;;366202;144;856312;-60
2022/02/16 05:52:47;;;;;;;22.49;12.34;;;;;;;;;;370153;144;856173;-61
2022/02/16 05:53:49;;;;;;;21.12;11.74;;;;;;;;;;369131;144;856822;-60
2022/02/16 05:54:51;;;;;;;22.15;12.24;;;;;;;;;;366711;144;863812;-60
2022/02/16 05:55:52;;;;;;;23.69;12.34;;;;;;;;;;365424;144;856247;-61
2022/02/16 05:56:54;;;;;;;21.47;12.60;;;;;;;;;;364482;146;863888;-61
2022/02/16 05:57:56;;;;;;;24.36;12.34;;;;;;;;;;363096;144;856260;-61
2022/02/16 05:58:57;;;;;;;21.61;11.76;;;;;;;;;;363094;144;856324;-61